createdAt,value
2018-01-12T00:01:39.708Z,93.37
2018-01-12T00:04:07.999Z,103.27
2018-01-12T00:06:36.277Z,97.57
2018-01-12T00:09:04.555Z,99.33
2018-01-12T00:11:32.816Z,87.10
2018-01-12T00:14:01.954Z,86.87
2018-01-12T00:16:30.352Z,109.40
2018-01-12T00:18:58.910Z,96.00
2018-01-12T00:21:27.152Z,92.60
2018-01-12T00:23:55.384Z,102.23
2018-01-12T00:26:23.677Z,105.00
2018-01-12T00:28:52.676Z,97.90
2018-01-12T00:31:20.946Z,109.63
2018-01-12T00:33:49.985Z,93.40
2018-01-12T00:36:20.422Z,102.23
2018-01-12T00:38:48.711Z,105.07
2018-01-12T00:41:17.018Z,99.40
2018-01-12T00:43:45.573Z,110.43
2018-01-12T00:46:13.850Z,104.90
2018-01-12T00:48:42.130Z,111.27
2018-01-12T00:51:10.398Z,96.70
2018-01-12T00:53:38.650Z,95.83
2018-01-12T00:56:07.762Z,95.33
2018-01-12T00:58:36.322Z,123.03
2018-01-12T01:01:04.582Z,119.63
2018-01-12T01:03:33.630Z,111.33
2018-01-12T01:06:01.868Z,114.40
2018-01-12T01:08:30.203Z,128.73
2018-01-12T01:10:59.957Z,125.23
2018-01-12T01:13:29.037Z,120.13
2018-01-12T01:15:58.069Z,136.70
2018-01-12T01:18:26.319Z,147.70
2018-01-12T01:20:55.334Z,137.57
2018-01-12T01:23:23.629Z,135.83
2018-01-12T01:25:51.863Z,129.23
2018-01-12T01:28:20.905Z,137.10
2018-01-12T01:30:49.161Z,127.60
2018-01-12T01:33:18.390Z,130.17
2018-01-12T01:35:46.612Z,127.57
2018-01-12T01:38:15.654Z,137.07
2018-01-12T01:40:43.893Z,149.73
2018-01-12T01:43:12.193Z,124.03
2018-01-12T01:45:41.196Z,128.83
2018-01-12T01:48:09.478Z,143.43
2018-01-12T01:50:37.779Z,153.50
2018-01-12T01:53:06.035Z,144.90
2018-01-12T01:55:34.313Z,132.63
2018-01-12T01:58:02.610Z,145.87
2018-01-12T02:00:30.887Z,139.63
2018-01-12T02:03:00.070Z,145.97
2018-01-12T02:05:28.706Z,136.23
2018-01-12T02:07:58.435Z,136.00
2018-01-12T02:10:26.684Z,120.03
2018-01-12T02:12:55.437Z,133.93
2018-01-12T02:15:23.693Z,138.80
2018-01-12T02:17:51.990Z,127.63
2018-01-12T02:20:20.251Z,130.77
2018-01-12T02:22:48.980Z,121.60
2018-01-12T02:25:17.244Z,146.40
2018-01-12T02:27:45.485Z,124.93
2018-01-12T02:30:13.767Z,168.90
2018-01-12T02:32:41.992Z,150.17
2018-01-12T02:35:11.761Z,174.80
2018-01-12T02:37:40.053Z,167.70
2018-01-12T02:40:08.290Z,145.37
2018-01-12T02:42:37.306Z,136.27
2018-01-12T02:45:06.201Z,141.77
2018-01-12T02:47:34.497Z,127.47
2018-01-12T02:50:03.744Z,137.27
2018-01-12T02:52:32.774Z,143.90
2018-01-12T02:55:01.031Z,130.90
2018-01-12T02:57:29.302Z,128.47
2018-01-12T02:59:57.664Z,136.13
2018-01-12T03:02:25.907Z,121.53
2018-01-12T03:04:55.022Z,147.63
2018-01-12T03:07:23.279Z,127.53
2018-01-12T03:09:53.150Z,121.47
2018-01-12T03:12:22.188Z,127.57
2018-01-12T03:14:50.454Z,130.73
2018-01-12T03:17:18.696Z,117.60
2018-01-12T03:19:47.748Z,124.10
2018-01-12T03:22:15.998Z,125.23
2018-01-12T03:24:44.834Z,128.70
2018-01-12T03:27:13.090Z,116.07
2018-01-12T03:29:41.804Z,143.30
2018-01-12T03:32:11.612Z,158.07
2018-01-12T03:34:39.833Z,137.47
2018-01-12T03:37:08.115Z,129.17
2018-01-12T03:39:36.379Z,156.63
2018-01-12T03:42:04.712Z,125.47
2018-01-12T03:44:32.994Z,126.63
2018-01-12T03:47:02.090Z,141.93
2018-01-12T03:49:31.450Z,125.77
2018-01-12T03:51:59.725Z,122.20
2018-01-12T03:54:28.817Z,151.00
2018-01-12T03:56:57.150Z,140.53
2018-01-12T03:59:25.423Z,149.67
2018-01-12T04:01:53.693Z,165.87
2018-01-12T04:04:21.961Z,148.90
2018-01-12T04:06:50.225Z,181.13
2018-01-12T04:09:18.498Z,155.30
2018-01-12T04:11:46.764Z,146.67
2018-01-12T04:14:15.032Z,160.43
2018-01-12T04:16:43.295Z,149.03
2018-01-12T04:19:12.313Z,132.83
2018-01-12T04:21:40.918Z,135.53
2018-01-12T04:24:09.150Z,135.07
2018-01-12T04:26:38.163Z,130.23
2018-01-12T04:29:06.564Z,138.60
2018-01-12T04:31:34.812Z,162.33
2018-01-12T04:34:03.070Z,157.63
2018-01-12T04:36:32.188Z,150.00
2018-01-12T04:39:01.740Z,157.00
2018-01-12T04:41:30.059Z,163.03
2018-01-12T04:43:59.063Z,161.70
2018-01-12T04:46:27.325Z,153.63
2018-01-12T04:48:55.593Z,156.80
2018-01-12T04:51:24.630Z,135.67
2018-01-12T04:53:52.865Z,159.43
2018-01-12T04:56:21.893Z,145.70
2018-01-12T04:58:50.171Z,163.90
2018-01-12T05:01:18.475Z,121.17
2018-01-12T05:03:46.756Z,122.73
2018-01-12T05:06:15.895Z,120.13
2018-01-12T05:08:44.963Z,139.47
2018-01-12T05:11:13.379Z,130.40
2018-01-12T05:13:42.428Z,128.93
2018-01-12T05:16:10.772Z,127.60
2018-01-12T05:18:40.056Z,137.87
2018-01-12T05:21:09.207Z,134.23
2018-01-12T05:23:37.486Z,129.13
2018-01-12T05:26:06.521Z,132.33
2018-01-12T05:28:34.991Z,128.27
2018-01-12T05:31:03.256Z,125.83
2018-01-12T05:33:33.947Z,115.83
2018-01-12T05:36:02.226Z,113.77
2018-01-12T05:38:30.482Z,113.17
2018-01-12T05:40:58.765Z,127.60
2018-01-12T05:43:27.423Z,116.07
2018-01-12T05:45:57.008Z,121.97
2018-01-12T05:48:26.102Z,115.10
2018-01-12T05:50:54.419Z,119.83
2018-01-12T05:53:22.793Z,113.67
2018-01-12T05:55:50.996Z,122.87
2018-01-12T05:58:19.292Z,101.20
2018-01-12T06:00:59.534Z,118.87
2018-01-12T06:03:39.737Z,114.30
2018-01-12T06:06:20.986Z,118.60
2018-01-12T06:08:49.728Z,114.63
2018-01-12T06:11:17.953Z,119.57
2018-01-12T06:13:47.098Z,113.67
2018-01-12T06:16:15.354Z,109.97
2018-01-12T06:18:44.410Z,113.03
2018-01-12T06:21:12.714Z,108.50
2018-01-12T06:23:40.963Z,137.60
2018-01-12T06:26:09.331Z,123.80
2018-01-12T06:28:37.579Z,113.97
2018-01-12T06:31:05.845Z,118.93
2018-01-12T06:33:34.099Z,118.30
2018-01-12T06:36:02.370Z,138.67
2018-01-12T06:38:30.716Z,112.83
2018-01-12T06:40:58.933Z,117.30
2018-01-12T06:43:27.204Z,126.17
2018-01-12T06:45:55.494Z,112.00
2018-01-12T06:48:23.782Z,114.57
2018-01-12T06:50:52.620Z,109.60
2018-01-12T06:53:20.865Z,110.67
2018-01-12T06:55:49.140Z,114.87
2018-01-12T06:58:17.382Z,114.90
2018-01-12T07:00:45.639Z,116.27
2018-01-12T07:03:13.910Z,103.23
2018-01-12T07:05:43.405Z,125.53
2018-01-12T07:08:12.452Z,108.33
2018-01-12T07:10:40.679Z,112.87
2018-01-12T07:13:09.733Z,110.33
2018-01-12T07:15:37.969Z,108.97
2018-01-12T07:18:06.958Z,114.87
2018-01-12T07:20:47.078Z,114.00
2018-01-12T07:23:27.198Z,113.47
2018-01-12T07:25:55.493Z,134.77
2018-01-12T07:28:23.804Z,110.40
2018-01-12T07:30:52.882Z,107.67
2018-01-12T07:33:21.118Z,110.10
2018-01-12T07:35:49.472Z,134.37
2018-01-12T07:38:17.715Z,138.60
2018-01-12T07:40:46.048Z,120.67
2018-01-12T07:43:14.322Z,117.83
2018-01-12T07:45:42.604Z,143.93
2018-01-12T07:48:10.915Z,143.00
2018-01-12T07:50:40.665Z,134.30
2018-01-12T07:53:15.434Z,128.23
2018-01-12T07:55:43.701Z,131.50
2018-01-12T07:58:12.294Z,124.60
2018-01-12T08:03:53.278Z,119.87
2018-01-12T08:06:21.590Z,169.80
2018-01-12T08:08:49.889Z,141.53
2018-01-12T08:11:18.130Z,134.50
2018-01-12T08:13:46.402Z,129.37
2018-01-12T08:16:14.674Z,140.47
2018-01-12T08:18:42.929Z,157.30
2018-01-12T08:21:11.211Z,131.03
2018-01-12T08:23:39.485Z,115.97
2018-01-12T08:26:08.521Z,139.63
2018-01-12T08:28:36.767Z,141.77
2018-01-12T08:31:05.075Z,139.13
2018-01-12T08:33:33.342Z,130.17
2018-01-12T08:36:01.639Z,131.60
2018-01-12T08:38:29.894Z,125.93
2018-01-12T08:40:58.166Z,117.27
2018-01-12T08:43:26.443Z,139.10
2018-01-12T08:45:54.758Z,130.50
2018-01-12T08:48:23.695Z,133.73
2018-01-12T08:50:51.904Z,126.30
2018-01-12T08:53:20.204Z,143.60
2018-01-12T08:55:50.000Z,116.10
2018-01-12T08:58:18.253Z,126.77
2018-01-12T09:00:46.489Z,124.53
2018-01-12T09:03:14.793Z,121.10
2018-01-12T09:05:43.804Z,134.07
2018-01-12T09:08:12.112Z,108.07
2018-01-12T09:10:40.364Z,114.50
2018-01-12T09:13:20.600Z,114.67
2018-01-12T09:15:48.895Z,124.80
2018-01-12T09:18:29.093Z,120.67
2018-01-12T09:20:57.374Z,122.03
2018-01-12T09:23:31.351Z,120.60
2018-01-12T09:25:59.643Z,125.13
2018-01-12T09:28:27.863Z,138.93
2018-01-12T09:30:56.871Z,132.70
2018-01-12T09:33:25.197Z,125.70
2018-01-12T09:35:53.518Z,133.47
2018-01-12T09:38:23.532Z,132.67
2018-01-12T09:40:51.783Z,128.97
2018-01-12T09:43:20.045Z,120.83
2018-01-12T09:45:48.329Z,138.40
2018-01-12T09:48:26.464Z,136.43
2018-01-12T09:50:55.012Z,155.43
2018-01-12T09:53:23.425Z,139.13
2018-01-12T09:55:51.661Z,138.67
2018-01-12T09:58:19.932Z,131.87
2018-01-12T10:01:02.755Z,147.20
2018-01-12T10:03:31.056Z,145.57
2018-01-12T10:05:59.309Z,123.70
2018-01-12T10:08:27.584Z,119.53
2018-01-12T10:10:55.913Z,114.03
2018-01-12T10:13:24.137Z,114.73
2018-01-12T10:15:52.415Z,107.27
2018-01-12T10:18:32.645Z,110.93
2018-01-12T10:24:10.269Z,127.10
2018-01-12T10:26:38.527Z,107.87
2018-01-12T10:29:06.793Z,116.03
2018-01-12T10:31:47.021Z,126.37
2018-01-12T10:34:27.262Z,124.83
2018-01-12T10:36:55.544Z,106.83
2018-01-12T10:39:24.291Z,110.73
2018-01-12T10:42:02.490Z,114.03
2018-01-12T10:44:30.735Z,128.07
2018-01-12T10:47:14.864Z,118.97
2018-01-12T10:49:55.163Z,108.33
2018-01-12T10:52:36.129Z,119.13
2018-01-12T10:55:04.386Z,113.93
2018-01-12T10:57:32.660Z,114.93
2018-01-12T11:00:00.894Z,98.67
2018-01-12T11:02:32.734Z,134.97
2018-01-12T11:05:00.980Z,111.07
2018-01-12T11:07:29.306Z,104.83
2018-01-12T11:09:58.303Z,99.23
2018-01-12T11:12:26.622Z,104.23
2018-01-12T11:14:54.887Z,125.70
2018-01-12T11:17:23.203Z,104.67
2018-01-12T11:19:51.463Z,114.03
2018-01-12T11:22:19.779Z,116.43
2018-01-12T11:24:48.022Z,107.17
2018-01-12T11:27:16.300Z,109.60
2018-01-12T11:29:44.634Z,104.70
2018-01-12T11:32:12.895Z,115.47
2018-01-12T11:34:41.146Z,112.43
2018-01-12T11:37:09.406Z,122.23
2018-01-12T11:39:37.694Z,115.80
2018-01-12T11:42:05.997Z,102.00
2018-01-12T11:44:34.255Z,95.23
2018-01-12T11:47:02.603Z,110.40
2018-01-12T11:49:30.876Z,104.00
2018-01-12T11:51:59.472Z,105.53
2018-01-12T11:54:27.743Z,106.93
2018-01-12T11:56:56.022Z,102.70
2018-01-12T11:59:24.298Z,98.00
2018-01-12T12:01:54.577Z,96.40
2018-01-12T12:04:23.645Z,96.43
2018-01-12T12:06:51.879Z,87.00
2018-01-12T12:09:20.145Z,102.83
2018-01-12T12:11:49.245Z,110.23
2018-01-12T12:14:18.301Z,101.47
2018-01-12T12:16:46.571Z,90.87
2018-01-12T12:19:14.816Z,88.73
2018-01-12T12:21:43.954Z,86.60
2018-01-12T12:24:13.735Z,90.70
2018-01-12T12:26:42.036Z,100.17
2018-01-12T12:29:10.298Z,96.73
2018-01-12T12:31:38.790Z,87.37
2018-01-12T12:34:07.041Z,104.77
2018-01-12T12:36:35.334Z,92.67
2018-01-12T12:39:03.624Z,84.03
2018-01-12T12:41:31.916Z,101.97
2018-01-12T12:44:00.974Z,98.57
2018-01-12T12:46:29.268Z,90.53
2018-01-12T12:48:57.550Z,91.47
2018-01-12T12:51:25.818Z,86.17
2018-01-12T12:53:54.065Z,81.90
2018-01-12T12:56:23.115Z,77.17
2018-01-12T12:58:51.404Z,86.13
2018-01-12T13:01:19.717Z,84.53
2018-01-12T13:03:48.033Z,89.57
2018-01-12T13:06:16.264Z,83.73
2018-01-12T13:08:44.534Z,82.77
2018-01-12T13:11:12.863Z,96.90
2018-01-12T13:13:41.116Z,79.37
2018-01-12T13:16:09.419Z,71.83
2018-01-12T13:18:37.708Z,103.10
2018-01-12T13:21:06.016Z,87.30
2018-01-12T13:23:35.051Z,88.10
2018-01-12T13:26:03.330Z,87.47
2018-01-12T13:28:31.622Z,99.70
2018-01-12T13:30:59.857Z,87.07
2018-01-12T13:33:28.894Z,94.23
2018-01-12T13:35:57.152Z,105.50
2018-01-12T13:38:26.344Z,110.30
2018-01-12T13:40:54.640Z,104.07
2018-01-12T13:43:22.887Z,98.80
2018-01-12T13:45:51.202Z,92.27
2018-01-12T13:48:19.529Z,88.40
2018-01-12T13:50:47.756Z,99.37
2018-01-12T13:53:16.054Z,101.23
2018-01-12T13:55:45.571Z,103.13
2018-01-12T13:58:13.852Z,105.63
2018-01-12T14:00:43.641Z,103.33
2018-01-12T14:03:12.098Z,116.63
2018-01-12T14:05:41.125Z,97.33
2018-01-12T14:08:09.407Z,122.30
2018-01-12T14:10:37.709Z,103.17
2018-01-12T14:13:05.975Z,121.90
2018-01-12T14:15:34.202Z,114.10
2018-01-12T14:18:02.863Z,98.40
2018-01-12T14:20:31.891Z,97.97
2018-01-12T14:23:00.135Z,123.07
2018-01-12T14:25:29.979Z,110.07
2018-01-12T14:27:59.046Z,112.03
2018-01-12T14:30:27.305Z,102.17
2018-01-12T14:32:55.565Z,121.70
2018-01-12T14:35:23.834Z,132.93
2018-01-12T14:37:52.143Z,113.23
2018-01-12T14:40:21.242Z,144.03
2018-01-12T14:42:49.514Z,130.43
2018-01-12T14:45:17.817Z,135.63
2018-01-12T14:47:46.227Z,137.67
2018-01-12T14:50:14.515Z,119.17
2018-01-12T14:52:42.809Z,133.80
2018-01-12T14:55:11.106Z,129.10
2018-01-12T14:57:39.983Z,128.73
2018-01-12T15:00:08.315Z,135.60
2018-01-12T15:02:36.626Z,123.33
2018-01-12T15:05:04.858Z,137.20
2018-01-12T15:07:33.138Z,140.07
2018-01-12T15:10:01.394Z,158.37
2018-01-12T15:12:29.683Z,152.23
2018-01-12T15:14:57.949Z,140.47
2018-01-12T15:17:26.512Z,155.80
2018-01-12T15:19:55.207Z,155.47
2018-01-12T15:22:23.492Z,159.27
2018-01-12T15:24:52.261Z,157.97
2018-01-12T15:27:21.276Z,164.77
2018-01-12T15:29:50.503Z,157.87
2018-01-12T15:32:18.843Z,164.57
2018-01-12T15:34:47.276Z,156.87
2018-01-12T15:37:16.182Z,161.13
2018-01-12T15:39:44.430Z,168.03
2018-01-12T15:42:12.706Z,182.00
2018-01-12T15:44:40.994Z,158.93
2018-01-12T15:47:09.282Z,168.47
2018-01-12T15:49:37.545Z,158.83
2018-01-12T15:52:05.816Z,163.90
2018-01-12T15:54:34.187Z,165.27
2018-01-12T15:57:03.189Z,160.60
2018-01-12T15:59:31.484Z,147.40
2018-01-12T16:01:59.739Z,164.60
2018-01-12T16:04:28.133Z,160.57
2018-01-12T16:06:56.985Z,144.20
2018-01-12T16:09:25.216Z,170.00
2018-01-12T16:11:53.543Z,161.53
2018-01-12T16:14:21.956Z,155.30
2018-01-12T16:16:50.600Z,161.67
2018-01-12T16:19:19.635Z,174.13
2018-01-12T16:21:47.971Z,180.43
2018-01-12T16:24:17.115Z,161.87
2018-01-12T16:26:47.148Z,166.50
2018-01-12T16:29:15.578Z,177.07
2018-01-12T16:31:43.848Z,175.53
2018-01-12T16:34:12.248Z,163.47
2018-01-12T16:36:40.738Z,152.10
2018-01-12T16:39:12.990Z,176.57
2018-01-12T16:41:38.507Z,157.93
2018-01-12T16:44:06.786Z,186.77
2018-01-12T16:46:35.081Z,184.57
2018-01-12T16:49:03.356Z,174.47
2018-01-12T16:51:32.453Z,185.33
2018-01-12T16:54:01.670Z,182.80
2018-01-12T16:56:31.362Z,208.53
2018-01-12T16:59:01.115Z,174.93
2018-01-12T17:01:30.019Z,182.07
2018-01-12T17:03:58.244Z,188.50
2018-01-12T17:06:27.323Z,181.93
2018-01-12T17:08:56.213Z,189.17
2018-01-12T17:11:24.776Z,187.87
2018-01-12T17:13:53.073Z,195.93
2018-01-12T17:16:21.317Z,183.53
2018-01-12T17:18:49.940Z,218.60
2018-01-12T17:21:18.204Z,199.20
2018-01-12T17:23:46.476Z,193.70
2018-01-12T17:26:16.000Z,187.90
2018-01-12T17:28:44.249Z,199.93
2018-01-12T17:31:12.524Z,223.23
2018-01-12T17:33:40.783Z,183.93
2018-01-12T17:36:09.075Z,178.90
2018-01-12T17:38:38.876Z,206.10
2018-01-12T17:41:07.158Z,205.90
2018-01-12T17:43:36.446Z,189.23
2018-01-12T17:46:04.777Z,177.53
2018-01-12T17:48:33.862Z,201.47
2018-01-12T17:51:02.149Z,192.97
2018-01-12T17:53:30.438Z,187.70
2018-01-12T17:55:59.503Z,198.00
2018-01-12T17:58:27.776Z,194.07
2018-01-12T18:00:56.064Z,179.37
2018-01-12T18:03:24.420Z,181.80
2018-01-12T18:05:52.816Z,174.07
2018-01-12T18:08:21.101Z,190.87
2018-01-12T18:10:50.902Z,186.43
2018-01-12T18:13:19.167Z,187.47
2018-01-12T18:15:47.503Z,183.97
2018-01-12T18:18:16.190Z,175.10
2018-01-12T18:20:44.470Z,212.07
2018-01-12T18:23:14.447Z,179.33
2018-01-12T18:25:43.360Z,211.10
2018-01-12T18:28:12.443Z,192.80
2018-01-12T18:30:41.150Z,178.13
2018-01-12T18:33:09.986Z,201.80
2018-01-12T18:35:38.344Z,186.80
2018-01-12T18:38:07.407Z,170.77
2018-01-12T18:40:35.691Z,192.80
2018-01-12T18:43:05.489Z,166.17
2018-01-12T18:45:34.643Z,168.43
2018-01-12T18:48:02.903Z,154.70
2018-01-12T18:50:31.545Z,158.33
2018-01-12T18:52:59.852Z,159.37
2018-01-12T18:55:28.133Z,156.00
2018-01-12T18:57:58.722Z,165.43
2018-01-12T19:00:26.996Z,182.47
2018-01-12T19:02:55.293Z,181.03
2018-01-12T19:05:23.550Z,198.47
2018-01-12T19:07:51.827Z,187.07
2018-01-12T19:10:20.863Z,170.83
2018-01-12T19:12:49.117Z,189.77
2018-01-12T19:15:17.434Z,171.67
2018-01-12T19:17:46.497Z,188.87
2018-01-12T19:20:14.794Z,159.10
2018-01-12T19:22:43.889Z,161.73
2018-01-12T19:25:12.149Z,164.70
2018-01-12T19:27:41.242Z,142.20
2018-01-12T19:30:09.673Z,162.53
2018-01-12T19:32:38.032Z,152.00
2018-01-12T19:35:07.826Z,158.33
2018-01-12T19:37:36.346Z,147.67
2018-01-12T19:40:05.435Z,161.90
2018-01-12T19:42:34.508Z,142.73
2018-01-12T19:45:03.487Z,179.87
2018-01-12T19:47:32.609Z,185.93
2018-01-12T19:50:00.942Z,192.07
2018-01-12T19:52:29.483Z,165.47
2018-01-12T19:54:57.755Z,187.13
2018-01-12T19:57:26.833Z,181.90
2018-01-12T19:59:55.485Z,205.27
2018-01-12T20:02:23.773Z,164.00
2018-01-12T20:04:52.076Z,175.97
2018-01-12T20:07:20.763Z,165.77
2018-01-12T20:09:51.206Z,161.37
2018-01-12T20:12:19.472Z,150.70
2018-01-12T20:14:47.830Z,166.13
2018-01-12T20:17:16.195Z,162.10
2018-01-12T20:19:44.513Z,157.63
2018-01-12T20:22:14.111Z,154.53
2018-01-12T20:24:43.319Z,172.87
2018-01-12T20:27:13.030Z,145.07
2018-01-12T20:29:42.633Z,155.07
2018-01-12T20:32:12.038Z,171.27
2018-01-12T20:34:41.243Z,160.17
2018-01-12T20:37:10.342Z,164.10
2018-01-12T20:39:39.841Z,180.60
2018-01-12T20:42:08.941Z,164.50
2018-01-12T20:44:37.234Z,153.30
2018-01-12T20:47:06.299Z,161.33
2018-01-12T20:49:34.559Z,180.47
2018-01-12T20:52:02.864Z,167.40
2018-01-12T20:54:31.221Z,182.03
2018-01-12T20:56:59.523Z,178.67
2018-01-12T20:59:27.814Z,157.53
2018-01-12T21:01:56.187Z,168.83
2018-01-12T21:04:24.485Z,140.23
2018-01-12T21:06:53.585Z,162.57
2018-01-12T21:09:22.661Z,154.17
2018-01-12T21:11:50.939Z,156.00
2018-01-12T21:14:20.046Z,178.60
2018-01-12T21:16:48.376Z,151.40
2018-01-12T21:19:16.628Z,174.13
2018-01-12T21:21:44.902Z,157.70
2018-01-12T21:24:13.201Z,150.67
2018-01-12T21:26:41.489Z,170.27
2018-01-12T21:29:09.784Z,145.40
2018-01-12T21:31:38.850Z,153.63
2018-01-12T21:34:08.878Z,175.13
2018-01-12T21:36:37.154Z,173.07
2018-01-12T21:39:05.461Z,166.83
2018-01-12T21:41:33.763Z,167.93
2018-01-12T21:44:03.296Z,182.90
2018-01-12T21:46:31.557Z,155.13
2018-01-12T21:49:00.568Z,152.23
2018-01-12T21:51:28.858Z,158.63
2018-01-12T21:53:57.149Z,143.73
2018-01-12T21:56:25.625Z,143.13
2018-01-12T21:58:53.946Z,164.90
2018-01-12T22:01:23.002Z,136.90
2018-01-12T22:03:51.275Z,160.47
2018-01-12T22:06:19.691Z,171.43
2018-01-12T22:08:47.986Z,168.07
2018-01-12T22:11:16.254Z,146.27
2018-01-12T22:13:44.684Z,170.03
2018-01-12T22:16:15.134Z,158.57
2018-01-12T22:18:43.524Z,162.63
2018-01-12T22:21:11.749Z,157.13
2018-01-12T22:23:40.066Z,155.77
2018-01-12T22:26:08.333Z,141.60
2018-01-12T22:28:37.599Z,145.87
2018-01-12T22:31:06.019Z,149.60
2018-01-12T22:33:34.320Z,167.03
2018-01-12T22:36:02.584Z,162.87
2018-01-12T22:38:30.855Z,143.87
2018-01-12T22:40:59.131Z,138.87
2018-01-12T22:43:27.435Z,147.23
2018-01-12T22:45:57.227Z,143.80
2018-01-12T22:48:25.490Z,163.43
2018-01-12T22:50:53.786Z,169.43
2018-01-12T22:53:22.034Z,163.27
2018-01-12T22:55:50.402Z,149.10
2018-01-12T22:58:19.422Z,145.83
2018-01-12T23:00:47.703Z,138.37
2018-01-12T23:03:15.994Z,127.23
2018-01-12T23:05:44.244Z,136.20
2018-01-12T23:08:12.546Z,140.90
2018-01-12T23:10:42.331Z,125.63
2018-01-12T23:13:10.595Z,135.83
2018-01-12T23:15:38.860Z,117.23
2018-01-12T23:18:07.877Z,93.70
2018-01-12T23:20:36.150Z,122.13
2018-01-12T23:23:04.471Z,107.33
2018-01-12T23:25:33.200Z,125.67
2018-01-12T23:28:01.480Z,125.57
2018-01-12T23:30:29.740Z,103.93
2018-01-12T23:32:58.764Z,118.40
2018-01-12T23:35:27.016Z,114.57
2018-01-12T23:37:56.027Z,111.33
2018-01-12T23:40:25.058Z,111.40
2018-01-12T23:42:53.314Z,120.70
2018-01-12T23:45:22.563Z,110.03
2018-01-12T23:47:51.666Z,114.87
2018-01-12T23:50:19.888Z,107.43
2018-01-12T23:52:48.161Z,93.60
2018-01-12T23:55:16.430Z,88.00
2018-01-12T23:57:45.254Z,122.67
